createdAt,value
2023-03-30T00:02:23.292Z,9.68
2023-03-30T00:07:25.615Z,9.42
2023-03-30T00:12:28.442Z,9.39
2023-03-30T00:17:31.229Z,9.50
2023-03-30T00:22:33.632Z,9.63
2023-03-30T00:27:37.524Z,9.56
2023-03-30T00:32:40.212Z,9.62
2023-03-30T00:37:46.228Z,8.65
2023-03-30T00:42:48.916Z,8.93
2023-03-30T00:48:02.470Z,9.14
2023-03-30T00:53:12.907Z,8.33
2023-03-30T00:58:17.203Z,8.92
2023-03-30T01:03:32.792Z,9.03
2023-03-30T01:08:36.835Z,9.23
2023-03-30T01:13:47.811Z,9.34
2023-03-30T01:19:23.684Z,9.38
2023-03-30T01:24:49.420Z,8.28
2023-03-30T01:30:19.949Z,8.66
2023-03-30T01:35:28.212Z,8.67
2023-03-30T01:41:10.176Z,8.56
2023-03-30T01:46:20.165Z,8.75
2023-03-30T01:51:27.880Z,8.82
2023-03-30T01:56:36.752Z,9.02
2023-03-30T02:01:42.150Z,8.70
2023-03-30T02:06:51.739Z,8.75
2023-03-30T02:11:55.182Z,8.36
2023-03-30T02:17:11.708Z,8.17
2023-03-30T02:22:16.694Z,8.37
2023-03-30T02:27:19.379Z,8.57
2023-03-30T02:32:26.232Z,8.62
2023-03-30T02:37:59.157Z,8.80
2023-03-30T02:43:19.570Z,8.80
2023-03-30T02:48:27.759Z,8.87
2023-03-30T02:53:34.768Z,8.84
2023-03-30T02:58:39.728Z,8.85
2023-03-30T03:03:47.990Z,8.79
2023-03-30T03:08:50.786Z,8.66
2023-03-30T03:13:52.846Z,8.88
2023-03-30T03:18:55.011Z,8.72
2023-03-30T03:23:57.073Z,8.58
2023-03-30T03:28:59.198Z,8.62
2023-03-30T03:34:01.542Z,7.87
2023-03-30T03:39:04.398Z,7.88
2023-03-30T03:44:06.599Z,7.99
2023-03-30T03:49:09.040Z,8.16
2023-03-30T03:54:11.324Z,8.30
2023-03-30T03:59:13.477Z,8.66
2023-03-30T04:04:15.626Z,8.70
2023-03-30T04:09:19.527Z,8.82
2023-03-30T04:14:21.650Z,8.81
2023-03-30T04:19:27.981Z,8.79
2023-03-30T04:24:30.061Z,8.86
2023-03-30T04:29:33.034Z,9.09
2023-03-30T04:34:35.157Z,8.98
2023-03-30T04:39:37.628Z,8.75
2023-03-30T04:44:40.004Z,8.70
2023-03-30T04:49:42.180Z,8.75
2023-03-30T04:54:44.511Z,8.94
2023-03-30T04:59:47.042Z,9.14
2023-03-30T05:04:49.154Z,9.17
2023-03-30T05:09:52.157Z,9.30
2023-03-30T05:14:54.356Z,9.32
2023-03-30T05:19:57.095Z,9.60
2023-03-30T05:24:59.148Z,9.68
2023-03-30T05:30:02.026Z,9.68
2023-03-30T05:35:04.603Z,9.88
2023-03-30T05:40:09.815Z,9.93
2023-03-30T05:45:12.005Z,9.94
2023-03-30T05:50:14.266Z,10.13
2023-03-30T05:55:16.798Z,10.27
2023-03-30T06:00:21.470Z,10.43
2023-03-30T06:05:24.673Z,10.60
2023-03-30T06:10:27.406Z,10.32
2023-03-30T06:15:29.911Z,10.18
2023-03-30T06:20:32.480Z,10.19
2023-03-30T06:25:34.641Z,10.16
2023-03-30T06:30:36.872Z,10.30
2023-03-30T06:35:39.001Z,10.59
2023-03-30T06:40:41.642Z,11.01
2023-03-30T06:45:49.679Z,11.50
2023-03-30T06:50:52.767Z,11.91
2023-03-30T06:55:57.452Z,12.11
2023-03-30T07:01:00.043Z,12.38
2023-03-30T07:06:02.291Z,12.55
2023-03-30T07:11:07.373Z,12.68
2023-03-30T07:16:09.851Z,12.67
2023-03-30T07:21:11.910Z,12.54
2023-03-30T07:26:14.016Z,12.65
2023-03-30T07:31:17.510Z,12.49
2023-03-30T07:36:20.194Z,12.80
2023-03-30T07:41:23.183Z,13.07
2023-03-30T07:46:25.351Z,13.60
2023-03-30T07:51:28.178Z,13.64
2023-03-30T07:56:30.600Z,13.63
2023-03-30T08:01:34.420Z,14.14
2023-03-30T08:06:36.511Z,14.12
2023-03-30T08:11:38.847Z,14.18
2023-03-30T08:16:41.295Z,14.32
2023-03-30T08:21:43.415Z,14.45
2023-03-30T08:26:46.061Z,14.63
2023-03-30T08:31:48.708Z,14.95
2023-03-30T08:36:51.294Z,15.02
2023-03-30T08:42:08.183Z,15.34
2023-03-30T08:47:14.652Z,15.44
2023-03-30T08:52:24.309Z,15.55
2023-03-30T08:57:37.412Z,15.84
2023-03-30T09:02:47.156Z,15.99
2023-03-30T09:08:16.765Z,15.99
2023-03-30T09:13:23.090Z,16.11
2023-03-30T09:18:30.741Z,16.41
2023-03-30T09:23:34.270Z,16.53
2023-03-30T09:28:51.776Z,16.91
2023-03-30T09:34:07.061Z,16.95
2023-03-30T09:39:17.327Z,16.76
2023-03-30T09:44:36.421Z,17.23
2023-03-30T09:49:39.548Z,17.25
2023-03-30T09:54:42.255Z,17.61
2023-03-30T09:59:46.078Z,17.61
2023-03-30T10:04:54.078Z,17.48
2023-03-30T10:09:59.033Z,17.42
2023-03-30T10:15:03.805Z,17.99
2023-03-30T10:20:31.202Z,18.17
2023-03-30T10:25:34.417Z,18.77
2023-03-30T10:30:37.008Z,18.88
2023-03-30T10:35:40.216Z,18.82
2023-03-30T10:40:45.657Z,18.82
2023-03-30T10:45:50.736Z,18.80
2023-03-30T10:51:16.248Z,19.18
2023-03-30T10:56:38.317Z,19.22
2023-03-30T11:01:55.369Z,19.24
2023-03-30T11:07:00.795Z,19.59
2023-03-30T11:12:08.352Z,20.00
2023-03-30T11:17:24.962Z,20.33
2023-03-30T11:22:29.371Z,20.52
2023-03-30T11:27:40.078Z,20.65
2023-03-30T11:33:23.695Z,20.41
2023-03-30T11:38:50.816Z,20.67
2023-03-30T11:43:56.225Z,20.36
2023-03-30T11:49:38.166Z,20.54
2023-03-30T11:55:04.064Z,20.91
2023-03-30T12:00:57.149Z,20.98
2023-03-30T12:06:28.856Z,20.95
2023-03-30T12:12:06.554Z,21.27
2023-03-30T12:17:27.135Z,21.43
2023-03-30T12:23:01.389Z,21.78
2023-03-30T12:28:08.086Z,21.72
2023-03-30T12:33:52.004Z,21.81
2023-03-30T12:39:02.848Z,21.74
2023-03-30T12:44:26.652Z,21.96
2023-03-30T12:49:43.803Z,22.14
2023-03-30T12:55:18.436Z,22.31
2023-03-30T13:00:48.970Z,22.66
2023-03-30T13:05:55.124Z,23.19
2023-03-30T13:11:26.659Z,22.60
2023-03-30T13:16:50.725Z,22.51
2023-03-30T13:22:03.841Z,23.26
2023-03-30T13:27:14.818Z,23.54
2023-03-30T13:32:27.996Z,24.00
2023-03-30T13:38:04.708Z,23.25
2023-03-30T13:43:13.478Z,23.62
2023-03-30T13:48:44.360Z,24.13
2023-03-30T13:53:54.098Z,24.48
2023-03-30T13:59:27.446Z,24.65
2023-03-30T14:04:31.686Z,24.95
2023-03-30T14:09:34.214Z,25.00
2023-03-30T14:14:39.431Z,24.62
2023-03-30T14:20:17.095Z,24.88
2023-03-30T14:25:40.363Z,24.22
2023-03-30T14:30:54.673Z,24.77
2023-03-30T14:35:59.220Z,25.36
2023-03-30T14:41:01.746Z,25.17
2023-03-30T14:46:07.064Z,25.00
2023-03-30T14:51:34.566Z,25.55
2023-03-30T14:56:37.219Z,26.03
2023-03-30T15:01:39.844Z,28.33
2023-03-30T15:06:42.538Z,30.37
2023-03-30T15:11:48.577Z,31.94
2023-03-30T15:16:54.052Z,32.51
2023-03-30T15:22:13.163Z,31.76
2023-03-30T15:27:17.464Z,30.92
2023-03-30T15:32:27.789Z,29.68
2023-03-30T15:37:31.178Z,29.50
2023-03-30T15:42:33.992Z,29.81
2023-03-30T15:47:36.795Z,30.22
2023-03-30T15:52:43.984Z,29.77
2023-03-30T15:57:49.181Z,29.18
2023-03-30T16:02:59.053Z,29.67
2023-03-30T16:08:01.423Z,30.38
2023-03-30T16:13:03.833Z,30.59
2023-03-30T16:18:06.299Z,30.66
2023-03-30T16:23:09.583Z,29.98
2023-03-30T16:28:16.993Z,28.31
2023-03-30T16:33:19.152Z,26.21
2023-03-30T16:38:21.399Z,24.87
2023-03-30T16:43:24.330Z,23.69
2023-03-30T16:48:27.317Z,22.68
2023-03-30T16:53:29.607Z,22.00
2023-03-30T16:58:31.788Z,21.45
2023-03-30T17:03:34.163Z,20.83
2023-03-30T17:08:36.475Z,20.60
2023-03-30T17:13:38.641Z,20.23
2023-03-30T17:18:41.122Z,19.89
2023-03-30T17:23:45.176Z,19.69
2023-03-30T17:28:47.336Z,19.21
2023-03-30T17:33:49.788Z,19.26
2023-03-30T17:38:53.698Z,19.15
2023-03-30T17:43:56.045Z,18.93
2023-03-30T17:48:59.344Z,18.65
2023-03-30T17:54:01.669Z,18.50
2023-03-30T17:59:03.904Z,18.33
2023-03-30T18:04:06.450Z,18.18
2023-03-30T18:09:26.465Z,17.88
2023-03-30T18:14:28.615Z,17.82
2023-03-30T18:19:30.708Z,17.67
2023-03-30T18:24:32.878Z,17.68
2023-03-30T18:29:35.782Z,17.56
2023-03-30T18:34:37.873Z,17.50
2023-03-30T18:39:40.646Z,17.47
2023-03-30T18:44:42.749Z,17.53
2023-03-30T18:49:45.552Z,17.51
2023-03-30T18:54:47.675Z,17.23
2023-03-30T18:59:49.809Z,17.16
2023-03-30T19:04:51.962Z,17.23
2023-03-30T19:09:54.148Z,17.12
2023-03-30T19:14:56.305Z,16.91
2023-03-30T19:19:58.457Z,16.95
2023-03-30T19:25:00.861Z,16.79
2023-03-30T19:30:03.259Z,16.70
2023-03-30T19:35:07.450Z,16.70
2023-03-30T19:40:12.478Z,16.80
2023-03-30T19:45:16.664Z,16.66
2023-03-30T19:50:20.980Z,16.32
2023-03-30T19:55:23.089Z,16.16
2023-03-30T20:00:25.874Z,16.22
2023-03-30T20:05:28.159Z,16.23
2023-03-30T20:10:30.937Z,16.10
2023-03-30T20:15:33.319Z,15.88
2023-03-30T20:20:35.764Z,15.67
2023-03-30T20:25:37.889Z,15.44
2023-03-30T20:30:40.067Z,15.20
2023-03-30T20:35:43.387Z,15.36
2023-03-30T20:40:56.519Z,15.35
2023-03-30T20:46:09.808Z,15.17
2023-03-30T20:51:14.699Z,15.12
2023-03-30T20:56:17.566Z,15.03
2023-03-30T21:01:28.540Z,14.83
2023-03-30T21:06:31.927Z,14.77
2023-03-30T21:11:39.072Z,14.70
2023-03-30T21:16:45.085Z,14.70
2023-03-30T21:21:47.353Z,14.50
2023-03-30T21:26:49.656Z,14.39
2023-03-30T21:31:51.812Z,14.18
2023-03-30T21:36:54.092Z,14.14
2023-03-30T21:41:56.316Z,14.12
2023-03-30T21:46:58.565Z,14.20
2023-03-30T21:52:00.705Z,14.12
2023-03-30T21:57:04.022Z,13.87
2023-03-30T22:02:06.411Z,13.75
2023-03-30T22:07:08.561Z,13.66
2023-03-30T22:12:10.652Z,13.88
2023-03-30T22:17:12.779Z,13.78
2023-03-30T22:22:14.990Z,12.74
2023-03-30T22:27:17.070Z,12.59
2023-03-30T22:32:20.700Z,12.72
2023-03-30T22:37:22.877Z,12.76
2023-03-30T22:42:25.081Z,13.17
2023-03-30T22:47:27.496Z,12.54
2023-03-30T22:52:30.591Z,12.75
2023-03-30T22:57:33.221Z,12.73
2023-03-30T23:02:35.389Z,13.10
2023-03-30T23:07:37.836Z,13.10
2023-03-30T23:12:39.989Z,12.61
2023-03-30T23:17:43.408Z,12.69
2023-03-30T23:22:45.722Z,12.83
2023-03-30T23:27:48.022Z,13.00
2023-03-30T23:32:50.172Z,13.08
2023-03-30T23:37:53.109Z,13.25
2023-03-30T23:42:55.245Z,13.39
2023-03-30T23:47:58.180Z,13.36
2023-03-30T23:53:00.442Z,13.21
2023-03-30T23:58:02.510Z,13.23
